KGPI

Glacier Park International Airport

Kalispell, Montana, USA
METAR KGPI 160555Z 00000KT 5SM FU OVC042 13/07 A2997 RMK AO2 SLP137 T01330067 10306 20133 51012
Observed Flight Rules
Aug-16 @ 05:55 UTC (21 minutes ago) Marginal Visual Flight Rules
Visibility Clouds Conditions
5 miles
  • Overcast at 4,200' AGL
  • Smoke
Temperatures Readings
Current 13°C / 55°F
Dewpoint 7°C / 45°F
Humidity 67%
Altimeter 29.97" Hg
Pressure 1013.7 hPa
Elevation 908
METAR KGPI 160555Z 00000KT 5SM FU OVC042 13/07 A2997 RMK AO2 SLP137 T01330067 10306 20133 51012
Observed Flight Rules
Aug-16 @ 05:55 UTC
(21 minutes ago)
MVFR
Clouds
  • Overcast at 4,200' AGL
Conditions
  • Smoke
Temperature Dewpoint
13°C / 55°F 7°C / 45°F
Humidity Altimeter Pressure
67% 29.97" Hg 1013.7 hPa